Time;durP1;ratioP1;P1;durP2;ratioP2;P2;SDS_P1;SDS_P2;PMS_P1;PMS_P2;Temp;Humidity;BMP_temperature;BMP_pressure;BME280_temperature;BME280_humidity;BME280_pressure;Samples;Min_cycle;Max_cycle;Signal;HPM_P1;HPM_P2
2021/06/21 00:02:21;;;;;;;4.57;4.17;;;;;;;19.16;87.18;94610.97;5063412;28;20443;-74
2021/06/21 00:04:48;;;;;;;8.60;4.20;;;;;;;19.15;87.41;94614.66;5115524;28;20449;-75
2021/06/21 00:07:15;;;;;;;3.93;3.63;;;;;;;19.14;87.33;94602.38;5115319;28;20454;-74
2021/06/21 00:09:42;;;;;;;4.43;4.03;;;;;;;19.07;87.77;94606.78;5115321;28;20967;-75
2021/06/21 00:12:10;;;;;;;5.30;4.37;;;;;;;19.05;87.82;94606.16;5115149;28;20454;-74
2021/06/21 00:14:39;;;;;;;6.63;4.30;;;;;;;18.96;88.15;94607.28;5115147;28;20917;-75
2021/06/21 00:17:06;;;;;;;10.97;4.03;;;;;;;18.92;87.84;94606.00;5115463;28;20443;-74
2021/06/21 00:19:33;;;;;;;4.90;4.20;;;;;;;18.96;87.53;94609.94;5115442;28;20518;-75
2021/06/21 00:22:01;;;;;;;8.27;4.20;;;;;;;18.96;87.37;94591.31;5062970;28;20472;-75
2021/06/21 00:24:28;;;;;;;4.30;3.73;;;;;;;18.92;87.09;94590.06;5115096;28;20456;-75
2021/06/21 00:26:55;;;;;;;4.20;3.90;;;;;;;18.84;87.76;94584.88;5115023;28;20478;-75
2021/06/21 00:29:23;;;;;;;3.70;3.50;;;;;;;18.81;88.03;94594.03;5114948;28;20514;-75
2021/06/21 00:31:51;;;;;;;4.20;3.90;;;;;;;18.75;88.95;94588.63;5114740;28;20936;-74
2021/06/21 00:34:18;;;;;;;4.83;4.43;;;;;;;18.78;88.97;94583.75;5114977;28;20443;-74
2021/06/21 00:36:45;;;;;;;4.00;3.70;;;;;;;18.75;89.20;94580.66;5115015;28;20448;-74
2021/06/21 00:39:12;;;;;;;12.63;4.23;;;;;;;18.72;89.37;94578.38;5062568;28;20494;-74
2021/06/21 00:41:39;;;;;;;4.23;3.93;;;;;;;18.72;89.25;94575.72;5114930;28;20483;-74
2021/06/21 00:44:08;;;;;;;7.67;3.93;;;;;;;18.71;89.08;94576.72;5114866;28;20449;-75
2021/06/21 00:46:36;;;;;;;4.37;4.07;;;;;;;18.71;89.06;94574.91;5114933;28;20550;-74
2021/06/21 00:49:05;;;;;;;4.77;4.37;;;;;;;18.78;88.78;94577.63;5114746;28;20978;-75
2021/06/21 00:51:33;;;;;;;4.60;4.20;;;;;;;18.76;88.57;94577.81;5114361;28;20904;-74
2021/06/21 00:54:00;;;;;;;4.40;4.00;;;;;;;18.70;89.14;94583.88;5114506;28;20788;-74
2021/06/21 00:56:28;;;;;;;4.40;4.00;;;;;;;18.65;89.24;94575.66;5114631;28;20477;-74
2021/06/21 00:59:00;;;;;;;4.57;4.17;;;;;;;18.69;89.14;94578.75;5114422;28;20474;-75
2021/06/21 01:01:28;;;;;;;7.60;3.90;;;;;;;18.73;88.90;94583.50;5114328;28;20504;-75
2021/06/21 01:03:55;;;;;;;4.87;4.53;;;;;;;18.73;89.14;94590.66;5114371;28;20441;-75
2021/06/21 01:06:23;;;;;;;6.50;4.50;;;;;;;18.67;89.47;94589.56;5114079;28;20444;-75
2021/06/21 01:08:50;;;;;;;5.67;5.17;;;;;;;18.55;90.01;94586.56;5114065;28;20444;-75
2021/06/21 01:11:18;;;;;;;4.47;4.10;;;;;;;18.59;90.19;94587.00;5113608;28;20448;-74
2021/06/21 01:14:07;;;;;;;4.57;4.17;;;;;;;18.58;90.30;94588.84;5114162;28;20885;-74
2021/06/21 01:16:42;;;;;;;6.37;5.10;;;;;;;18.62;90.36;94593.78;5114009;28;20856;-74
2021/06/21 01:19:15;;;;;;;8.20;4.70;;;;;;;18.63;90.44;94598.13;5114188;28;20442;-74
2021/06/21 01:22:35;;;;;;;6.53;5.40;;;;;;;18.60;90.52;94593.16;5113732;28;20457;-75
2021/06/21 01:25:10;;;;;;;5.70;5.10;;;;;;;18.51;90.61;94574.66;5078074;28;20446;-74
2021/06/21 01:27:51;;;;;;;5.53;4.63;;;;;;;18.51;91.16;94574.66;5114145;28;20446;-75
2021/06/21 01:30:21;;;;;;;5.37;4.87;;;;;;;18.54;91.08;94574.28;5113729;28;20492;-74
2021/06/21 01:32:52;;;;;;;5.83;5.03;;;;;;;18.55;90.61;94581.25;5062270;28;20505;-75
2021/06/21 01:35:28;;;;;;;8.03;5.17;;;;;;;18.57;90.56;94583.72;5113676;28;20447;-74
2021/06/21 01:37:58;;;;;;;6.33;5.63;;;;;;;18.58;90.28;94596.00;5113593;28;20449;-75
2021/06/21 01:40:27;;;;;;;5.63;5.00;;;;;;;18.53;89.83;94593.06;5113659;28;20451;-74
2021/06/21 01:42:58;;;;;;;5.73;4.43;;;;;;;18.46;89.92;94587.66;5113469;28;20915;-75
2021/06/21 01:45:26;;;;;;;5.80;4.90;;;;;;;18.39;90.17;94589.41;5113443;28;20447;-74
2021/06/21 01:47:55;;;;;;;5.27;4.50;;;;;;;18.36;90.70;94591.63;5113420;28;20518;-74
2021/06/21 01:50:25;;;;;;;6.83;5.73;;;;;;;18.38;91.05;94593.06;5113352;28;20489;-75
2021/06/21 01:52:59;;;;;;;5.87;5.13;;;;;;;18.38;90.87;94585.09;5113562;28;20932;-74
2021/06/21 01:55:28;;;;;;;7.30;5.43;;;;;;;18.40;90.73;94593.72;5113551;28;20509;-74
2021/06/21 01:57:57;;;;;;;4.80;4.40;;;;;;;18.43;90.37;94606.63;5113249;28;20504;-74
2021/06/21 02:00:25;;;;;;;7.83;5.50;;;;;;;18.42;90.02;94601.50;5113237;28;20448;-74
2021/06/21 02:02:56;;;;;;;5.53;5.10;;;;;;;18.42;90.03;94598.84;5113682;28;20512;-75
2021/06/21 02:05:24;;;;;;;5.60;4.80;;;;;;;18.43;89.88;94603.97;5113241;28;20444;-74
2021/06/21 02:07:52;;;;;;;11.03;5.33;;;;;;;18.42;90.00;94596.19;5113276;28;20531;-75
2021/06/21 02:10:21;;;;;;;7.30;5.67;;;;;;;18.44;90.20;94600.31;5112941;28;21042;-75
2021/06/21 02:12:50;;;;;;;9.70;5.40;;;;;;;18.46;90.11;94600.94;5113231;28;20533;-75
2021/06/21 02:15:17;;;;;;;5.93;5.27;;;;;;;18.45;90.16;94607.25;5113377;28;20865;-74
2021/06/21 02:17:45;;;;;;;5.30;4.80;;;;;;;18.43;89.89;94600.47;5113495;28;20505;-74
2021/06/21 02:20:16;;;;;;;6.60;4.10;;;;;;;18.41;89.61;94598.00;5113135;28;20942;-74
2021/06/21 02:22:43;;;;;;;4.60;4.20;;;;;;;18.38;89.33;94600.22;5113684;28;20503;-74
2021/06/21 02:25:12;;;;;;;6.07;5.00;;;;;;;18.33;89.13;94600.78;5113263;28;20517;-74
2021/06/21 02:27:40;;;;;;;6.70;4.20;;;;;;;18.31;89.08;94609.94;5060707;28;20498;-74
2021/06/21 02:30:10;;;;;;;4.93;4.53;;;;;;;18.30;88.81;94603.81;5061040;28;21076;-74
2021/06/21 02:32:37;;;;;;;5.90;3.97;;;;;;;18.30;88.88;94602.97;5107243;28;20444;-74
2021/06/21 02:35:06;;;;;;;4.33;3.93;;;;;;;18.23;88.67;94608.22;5113012;28;20505;-75
2021/06/21 02:37:36;;;;;;;6.97;4.80;;;;;;;18.19;88.61;94609.56;5113185;28;20534;-74
2021/06/21 02:40:04;;;;;;;5.07;4.57;;;;;;;18.14;88.50;94603.97;5113154;28;20502;-75
2021/06/21 02:42:31;;;;;;;5.03;3.90;;;;;;;18.10;88.65;94610.66;5113159;28;20439;-75
2021/06/21 02:44:58;;;;;;;5.13;4.53;;;;;;;18.09;88.76;94603.72;5113030;28;20498;-74
2021/06/21 02:47:25;;;;;;;6.20;4.37;;;;;;;18.07;88.85;94603.91;5113103;28;20890;-75
2021/06/21 02:49:53;;;;;;;4.50;4.10;;;;;;;18.07;88.75;94600.41;5060978;28;20483;-74
2021/06/21 02:52:29;;;;;;;5.07;4.57;;;;;;;18.06;88.75;94596.13;5112890;28;20448;-74
2021/06/21 02:55:09;;;;;;;7.00;4.53;;;;;;;18.05;88.71;94589.97;5113252;28;20505;-74
2021/06/21 02:57:46;;;;;;;5.03;4.50;;;;;;;18.07;88.39;94595.94;5066065;28;20990;-74
2021/06/21 03:00:14;;;;;;;5.83;5.30;;;;;;;18.05;88.09;94591.81;5116841;28;20806;-74
2021/06/21 03:02:43;;;;;;;7.47;4.80;;;;;;;18.00;88.59;94596.84;5116747;28;20450;-74
2021/06/21 03:05:11;;;;;;;5.07;4.67;;;;;;;17.95;88.66;94589.44;5116693;28;20509;-75
2021/06/21 03:07:39;;;;;;;5.43;4.90;;;;;;;17.89;88.28;94576.88;5116452;28;20450;-74
2021/06/21 03:10:10;;;;;;;4.13;3.63;;;;;;;17.88;88.74;94578.69;5116632;28;20566;-74
2021/06/21 03:12:38;;;;;;;6.70;4.57;;;;;;;17.87;88.79;94578.88;5116490;28;20444;-75
2021/06/21 03:15:07;;;;;;;5.70;4.10;;;;;;;17.84;89.02;94582.72;5064207;28;20474;-74
2021/06/21 03:17:36;;;;;;;13.03;4.67;;;;;;;17.85;88.78;94583.56;5031066;28;20448;-74
2021/06/21 03:20:04;;;;;;;4.93;4.50;;;;;;;17.83;88.70;94578.44;5116192;28;20988;-74
2021/06/21 03:22:32;;;;;;;5.17;4.77;;;;;;;17.81;88.43;94579.63;5116661;28;20436;-74
2021/06/21 03:24:59;;;;;;;5.70;4.30;;;;;;;17.80;88.82;94581.44;5080456;28;20568;-74
2021/06/21 03:27:31;;;;;;;4.57;4.17;;;;;;;17.82;88.66;94587.41;5116059;28;20439;-74
2021/06/21 03:29:59;;;;;;;9.37;4.53;;;;;;;17.84;88.69;94582.72;5116088;28;20896;-75
2021/06/21 03:32:29;;;;;;;5.13;4.40;;;;;;;17.83;88.62;94586.38;5080220;28;20432;-75
2021/06/21 03:34:57;;;;;;;5.60;4.67;;;;;;;17.82;88.43;94582.09;5116136;28;20928;-74
2021/06/21 03:37:24;;;;;;;6.80;4.60;;;;;;;17.86;88.47;94585.19;5064328;28;20851;-74
2021/06/21 03:39:52;;;;;;;6.37;4.03;;;;;;;17.82;88.74;94587.41;5116099;28;20477;-74
2021/06/21 03:42:19;;;;;;;5.40;4.10;;;;;;;17.81;88.82;94593.72;5115775;28;20439;-75
2021/06/21 03:44:48;;;;;;;5.43;4.93;;;;;;;17.79;88.85;94595.72;5115717;28;20497;-75
2021/06/21 03:47:15;;;;;;;8.90;5.33;;;;;;;17.65;90.23;94593.84;5030294;28;20598;-75
2021/06/21 03:49:50;;;;;;;6.30;4.90;;;;;;;17.68;89.91;94588.22;5115570;28;20486;-74
2021/06/21 03:52:18;;;;;;;6.03;4.23;;;;;;;17.77;89.83;94575.69;5115906;28;20443;-74
2021/06/21 03:54:45;;;;;;;5.73;4.03;;;;;;;17.97;90.86;94575.97;5062949;28;20431;-74
2021/06/21 03:57:12;;;;;;;4.27;3.87;;;;;;;18.42;89.48;94581.06;5080075;28;20497;-74
2021/06/21 03:59:39;;;;;;;6.23;4.80;;;;;;;19.03;86.09;94584.22;5115775;28;20511;-74
2021/06/21 04:02:08;;;;;;;5.00;4.60;;;;;;;19.48;83.67;94592.84;5115422;28;20979;-73
2021/06/21 04:04:35;;;;;;;6.03;4.53;;;;;;;19.76;82.16;94598.22;5062771;28;20551;-75
2021/06/21 04:07:02;;;;;;;5.20;4.70;;;;;;;20.29;80.38;94604.75;5115336;28;20463;-75
2021/06/21 04:09:29;;;;;;;6.47;4.50;;;;;;;20.81;77.49;94605.19;5115228;28;20447;-75
2021/06/21 04:11:56;;;;;;;5.67;5.17;;;;;;;20.97;75.89;94616.34;5115292;28;20551;-74
2021/06/21 04:14:23;;;;;;;5.70;4.37;;;;;;;21.27;75.13;94621.38;5115038;28;20916;-75
2021/06/21 04:16:50;;;;;;;6.20;4.40;;;;;;;21.51;75.20;94617.31;5115267;28;20497;-75
2021/06/21 04:19:18;;;;;;;5.57;4.80;;;;;;;22.06;73.43;94625.97;5115242;28;20446;-75
2021/06/21 04:21:45;;;;;;;5.30;4.20;;;;;;;22.63;71.40;94635.94;5063149;28;20450;-75
2021/06/21 04:24:12;;;;;;;5.23;4.40;;;;;;;23.11;69.34;94636.41;5062883;28;20446;-75
2021/06/21 04:26:39;;;;;;;5.83;4.87;;;;;;;23.57;67.76;94629.19;5115244;28;20525;-75
2021/06/21 04:29:06;;;;;;;5.80;4.97;;;;;;;24.02;66.01;94636.06;5115107;28;20473;-75
2021/06/21 04:31:33;;;;;;;6.00;5.37;;;;;;;24.34;65.23;94641.38;5114833;28;20549;-75
2021/06/21 04:34:00;;;;;;;9.20;6.30;;;;;;;24.47;64.04;94635.06;5115046;28;20450;-75
2021/06/21 04:36:29;;;;;;;9.00;5.43;;;;;;;24.75;64.12;94635.38;5114815;28;20851;-75
2021/06/21 04:38:56;;;;;;;5.73;4.90;;;;;;;24.64;63.25;94634.25;5114703;28;20514;-75
2021/06/21 04:41:23;;;;;;;7.80;4.93;;;;;;;24.91;63.12;94636.63;5114749;28;20485;-76
2021/06/21 04:43:50;;;;;;;5.77;5.27;;;;;;;25.00;62.75;94638.81;5115012;28;20502;-75
2021/06/21 04:46:17;;;;;;;8.10;5.70;;;;;;;24.87;62.24;94640.81;5114649;28;20883;-75
2021/06/21 04:48:48;;;;;;;5.93;5.23;;;;;;;25.08;62.38;94632.31;5114580;28;20447;-74
2021/06/21 04:51:16;;;;;;;8.90;5.87;;;;;;;25.30;62.10;94641.53;5078608;28;20560;-74
2021/06/21 04:53:47;;;;;;;6.73;6.13;;;;;;;25.05;61.95;94642.69;5114583;28;20471;-75
2021/06/21 04:56:14;;;;;;;9.67;6.47;;;;;;;24.90;62.36;94653.78;5114477;28;20994;-74
2021/06/21 04:58:41;;;;;;;7.90;6.50;;;;;;;24.44;64.52;94649.72;5062261;28;20495;-75
2021/06/21 05:01:08;;;;;;;14.23;7.27;;;;;;;24.91;63.74;94653.56;5095678;28;20450;-74
2021/06/21 05:03:37;;;;;;;9.30;7.10;;;;;;;25.28;63.41;94649.00;5062086;28;20446;-74
2021/06/21 05:06:04;;;;;;;6.47;5.90;;;;;;;25.70;62.25;94651.75;5114279;28;20478;-75
2021/06/21 05:08:31;;;;;;;9.33;6.37;;;;;;;25.87;60.85;94641.16;5114295;28;20467;-74
2021/06/21 05:11:00;;;;;;;10.87;6.80;;;;;;;26.14;61.08;94644.25;5114196;28;20865;-75
2021/06/21 05:13:27;;;;;;;7.30;6.60;;;;;;;26.43;60.29;94656.81;5114163;28;20507;-74
2021/06/21 05:15:54;;;;;;;7.83;7.13;;;;;;;26.54;59.71;94657.88;5114130;28;20931;-75
2021/06/21 05:18:21;;;;;;;9.23;6.77;;;;;;;26.61;60.04;94649.69;5113634;28;20447;-74
2021/06/21 05:20:48;;;;;;;9.60;7.77;;;;;;;26.45;59.50;94638.56;5113503;28;20443;-74
2021/06/21 05:23:15;;;;;;;10.90;7.23;;;;;;;25.97;60.98;94640.59;5114063;28;20447;-75
2021/06/21 05:25:42;;;;;;;7.90;7.27;;;;;;;26.11;60.75;94636.66;5114142;28;20483;-74
2021/06/21 05:28:11;;;;;;;13.17;8.33;;;;;;;26.31;60.18;94639.00;5113805;28;20943;-74
2021/06/21 05:30:38;;;;;;;10.90;9.80;;;;;;;26.02;60.28;94656.84;5061162;28;20514;-75
2021/06/21 05:33:05;;;;;;;8.80;7.77;;;;;;;25.31;62.77;94650.41;5078063;28;20467;-74
2021/06/21 05:35:32;;;;;;;10.83;8.37;;;;;;;24.74;65.32;94657.06;5113952;28;20442;-74
2021/06/21 05:37:59;;;;;;;9.23;7.10;;;;;;;25.16;65.39;94663.44;5113992;28;20474;-74
2021/06/21 05:40:26;;;;;;;9.10;8.20;;;;;;;25.51;63.57;94666.28;5094774;28;20475;-74
2021/06/21 05:42:53;;;;;;;9.10;7.80;;;;;;;25.39;63.57;94670.75;5113872;28;20500;-74
2021/06/21 05:45:21;;;;;;;8.20;7.30;;;;;;;25.72;63.03;94673.84;5113762;28;20523;-74
2021/06/21 05:47:48;;;;;;;9.03;7.53;;;;;;;25.88;63.09;94665.13;5113518;28;20479;-74
2021/06/21 05:50:16;;;;;;;12.23;6.20;;;;;;;26.05;62.27;94659.94;5113981;28;20522;-74
2021/06/21 05:52:43;;;;;;;6.90;6.30;;;;;;;26.14;62.38;94653.16;5060760;28;20492;-74
2021/06/21 05:55:11;;;;;;;13.90;7.00;;;;;;;26.05;61.70;94651.03;5113736;28;20481;-75
2021/06/21 05:57:38;;;;;;;8.87;6.30;;;;;;;26.44;61.35;94647.69;5113470;28;20492;-74
2021/06/21 06:00:06;;;;;;;7.33;6.63;;;;;;;26.70;60.64;94656.34;5113443;28;20996;-74
2021/06/21 06:02:35;;;;;;;8.10;5.67;;;;;;;26.93;59.88;94655.50;5113519;28;20446;-74
2021/06/21 06:05:02;;;;;;;8.00;7.20;;;;;;;27.00;59.54;94661.59;5113511;28;20500;-74
2021/06/21 06:07:29;;;;;;;9.30;6.10;;;;;;;27.07;59.19;94646.13;5113743;28;20443;-74
2021/06/21 06:09:57;;;;;;;6.40;5.80;;;;;;;27.17;60.05;94654.41;5113483;28;20480;-74
2021/06/21 06:12:24;;;;;;;7.20;6.47;;;;;;;27.38;57.60;94647.56;5113395;28;20494;-74
2021/06/21 06:14:52;;;;;;;8.00;6.00;;;;;;;26.97;59.39;94646.72;5113235;28;20451;-73
2021/06/21 06:17:19;;;;;;;12.10;6.13;;;;;;;27.38;59.12;94647.56;5061596;28;20475;-74
2021/06/21 06:19:47;;;;;;;9.70;6.60;;;;;;;27.55;56.77;94643.03;5113521;28;20447;-74
2021/06/21 06:22:14;;;;;;;8.80;5.73;;;;;;;27.94;57.15;94648.63;5113370;28;20496;-74
2021/06/21 06:24:41;;;;;;;6.73;5.70;;;;;;;28.31;56.26;94641.72;5113384;28;20492;-74
2021/06/21 06:27:08;;;;;;;7.83;5.40;;;;;;;28.65;54.95;94641.69;5113308;28;20447;-74
2021/06/21 06:29:36;;;;;;;6.37;5.77;;;;;;;28.91;54.08;94641.00;5113464;28;20478;-74
2021/06/21 06:32:04;;;;;;;5.57;5.17;;;;;;;29.25;52.92;94654.41;5117295;28;21034;-74
2021/06/21 06:34:32;;;;;;;9.93;5.47;;;;;;;29.30;52.50;94655.28;5117340;28;20496;-74
2021/06/21 06:37:00;;;;;;;9.53;6.77;;;;;;;29.28;51.85;94651.19;5081520;28;20441;-74
2021/06/21 06:39:27;;;;;;;5.93;5.40;;;;;;;29.04;52.05;94649.81;5117287;28;20447;-74
2021/06/21 06:41:55;;;;;;;9.57;5.43;;;;;;;28.51;54.21;94653.88;5117146;28;20500;-73
2021/06/21 06:44:22;;;;;;;6.70;6.20;;;;;;;28.64;54.86;94642.75;5117113;28;20504;-74
2021/06/21 06:46:49;;;;;;;5.87;5.30;;;;;;;28.77;54.33;94641.59;5117234;28;20479;-74
2021/06/21 06:49:16;;;;;;;5.30;4.67;;;;;;;28.90;55.15;94642.06;5116925;28;20919;-74
2021/06/21 06:51:44;;;;;;;6.30;5.50;;;;;;;28.66;54.46;94635.22;5116828;28;20828;-74
2021/06/21 06:54:22;;;;;;;8.40;5.60;;;;;;;28.17;54.70;94629.59;5116745;28;20503;-74
2021/06/21 06:57:00;;;;;;;5.97;5.37;;;;;;;28.41;54.34;94635.66;5117075;28;20511;-74
2021/06/21 06:59:29;;;;;;;6.30;5.80;;;;;;;28.66;53.30;94624.44;5116667;28;21013;-74
2021/06/21 07:01:56;;;;;;;11.33;5.30;;;;;;;28.89;54.57;94623.41;5116597;28;20847;-74
2021/06/21 07:04:24;;;;;;;5.73;5.30;;;;;;;28.90;54.00;94623.16;5116779;28;20520;-74
2021/06/21 07:06:51;;;;;;;10.00;5.47;;;;;;;29.12;52.85;94631.25;5116603;28;20451;-74
2021/06/21 07:09:20;;;;;;;5.87;4.77;;;;;;;29.31;52.50;94637.19;5080927;28;20443;-74
2021/06/21 07:11:50;;;;;;;5.57;5.07;;;;;;;29.38;50.97;94634.28;5116241;28;20521;-74
2021/06/21 07:14:18;;;;;;;6.33;5.37;;;;;;;29.53;50.40;94640.72;5116510;28;20439;-74
2021/06/21 07:16:47;;;;;;;5.20;4.47;;;;;;;29.62;50.52;94630.25;5116332;28;20435;-74
2021/06/21 07:19:14;;;;;;;6.03;5.53;;;;;;;29.24;50.62;94634.69;5064943;28;20446;-74
2021/06/21 07:21:41;;;;;;;9.50;5.77;;;;;;;29.27;52.21;94631.47;5116142;28;20474;-74
2021/06/21 07:24:10;;;;;;;6.97;5.93;;;;;;;29.11;52.94;94635.03;5115718;28;20856;-75
2021/06/21 07:26:40;;;;;;;9.53;5.63;;;;;;;29.18;51.97;94634.84;5063242;28;20431;-74
2021/06/21 07:29:07;;;;;;;7.60;6.60;;;;;;;29.16;52.53;94631.56;5115950;28;20438;-74
2021/06/21 07:31:35;;;;;;;7.37;5.97;;;;;;;29.33;52.39;94637.75;5115902;28;20531;-74
2021/06/21 07:34:02;;;;;;;5.50;5.10;;;;;;;28.95;53.92;94644.84;5079591;28;21198;-74
2021/06/21 07:36:30;;;;;;;5.03;4.73;;;;;;;28.87;53.38;94645.25;5115288;28;21016;-79
2021/06/21 07:38:57;;;;;;;6.17;5.67;;;;;;;29.06;54.59;94637.69;5115800;28;20931;-80
2021/06/21 07:41:24;;;;;;;7.73;6.37;;;;;;;29.21;53.06;94646.00;5116177;28;20854;-78
2021/06/21 07:43:53;;;;;;;6.20;5.53;;;;;;;29.28;52.97;94643.09;5115459;28;20845;-79
2021/06/21 07:46:20;;;;;;;7.60;6.30;;;;;;;29.14;54.88;94629.13;5116002;28;20625;-76
2021/06/21 07:48:48;;;;;;;9.90;6.77;;;;;;;29.32;52.64;94644.22;5115280;28;20449;-79
2021/06/21 07:51:16;;;;;;;6.23;5.63;;;;;;;29.56;52.86;94636.69;5116014;28;20559;-78
2021/06/21 07:53:43;;;;;;;8.23;6.50;;;;;;;29.57;52.58;94643.72;5115574;28;20520;-77
2021/06/21 07:56:13;;;;;;;8.63;6.20;;;;;;;29.42;52.69;94644.31;5115374;28;20447;-78
2021/06/21 07:58:41;;;;;;;7.50;6.17;;;;;;;29.28;52.77;94638.50;5116110;28;20435;-82
2021/06/21 08:01:12;;;;;;;12.07;7.63;;;;;;;29.21;52.99;94629.78;5116179;28;20442;-81
2021/06/21 08:03:39;;;;;;;9.13;7.50;;;;;;;28.74;53.20;94628.56;5080154;28;20438;-78
2021/06/21 08:06:07;;;;;;;10.90;7.70;;;;;;;28.46;54.65;94638.44;5114695;28;20805;-79
2021/06/21 08:08:35;;;;;;;9.77;7.70;;;;;;;28.55;54.98;94630.72;5115152;28;20459;-78
2021/06/21 08:11:02;;;;;;;10.73;8.03;;;;;;;27.99;55.21;94633.34;5115406;28;20450;-79
2021/06/21 08:13:30;;;;;;;9.63;8.63;;;;;;;28.22;55.56;94636.94;5115422;28;20451;-79
2021/06/21 08:15:57;;;;;;;12.10;7.43;;;;;;;28.50;57.09;94633.34;5063417;28;20439;-77
2021/06/21 08:18:25;;;;;;;7.97;6.90;;;;;;;28.79;55.20;94629.47;5116097;28;20536;-80
2021/06/21 08:20:52;;;;;;;10.03;7.70;;;;;;;28.91;55.14;94630.22;5063159;28;20486;-79
2021/06/21 08:23:20;;;;;;;10.00;8.57;;;;;;;28.95;55.01;94625.94;5115425;28;20447;-79
2021/06/21 08:25:48;;;;;;;10.30;8.63;;;;;;;28.58;55.66;94622.13;5115707;28;20934;-79
2021/06/21 08:28:16;;;;;;;11.10;7.90;;;;;;;28.72;56.69;94630.72;5115336;28;20447;-80
2021/06/21 08:30:44;;;;;;;14.57;8.50;;;;;;;28.55;56.32;94614.53;5115067;28;20455;-78
2021/06/21 08:33:12;;;;;;;11.60;8.30;;;;;;;28.30;59.31;94617.66;5114945;28;20540;-78
2021/06/21 08:35:40;;;;;;;13.20;8.70;;;;;;;28.46;57.01;94626.81;5114935;28;20446;-78
2021/06/21 08:38:07;;;;;;;13.00;9.10;;;;;;;28.50;56.38;94625.25;5061371;28;20463;-80
2021/06/21 08:40:34;;;;;;;10.67;8.57;;;;;;;28.58;57.00;94619.44;5114598;28;20447;-79
2021/06/21 08:43:03;;;;;;;16.70;8.77;;;;;;;28.65;55.64;94620.91;5114795;28;20500;-80
2021/06/21 08:45:31;;;;;;;11.10;8.40;;;;;;;28.82;56.54;94615.44;5113817;28;20506;-78
2021/06/21 08:47:58;;;;;;;12.80;9.23;;;;;;;28.69;55.97;94618.53;5073670;28;20449;-79
2021/06/21 08:50:27;;;;;;;13.10;7.93;;;;;;;28.72;55.04;94615.31;5074102;28;20472;-79
2021/06/21 08:52:55;;;;;;;15.53;8.27;;;;;;;28.73;55.81;94616.13;5074089;28;20566;-78
2021/06/21 08:55:22;;;;;;;10.57;8.50;;;;;;;28.66;54.91;94617.13;5073005;28;20441;-79
2021/06/21 08:57:50;;;;;;;12.57;8.10;;;;;;;28.77;56.45;94615.38;5039116;28;20488;-79
2021/06/21 09:00:20;;;;;;;17.13;8.40;;;;;;;28.95;54.84;94620.53;5073548;28;20449;-77
2021/06/21 09:02:48;;;;;;;10.30;7.97;;;;;;;28.95;55.87;94617.00;5073681;28;20975;-77
2021/06/21 09:05:16;;;;;;;53.93;11.60;;;;;;;28.98;54.95;94617.31;5073660;28;20447;-78
2021/06/21 09:07:43;;;;;;;8.73;6.83;;;;;;;28.88;55.81;94619.06;5073848;28;20441;-78
2021/06/21 09:10:25;;;;;;;10.80;7.97;;;;;;;28.93;56.48;94621.84;5073223;28;20498;-74
2021/06/21 09:13:04;;;;;;;9.27;7.00;;;;;;;28.87;56.27;94615.53;5073085;28;20524;-74
2021/06/21 09:15:32;;;;;;;11.70;7.20;;;;;;;28.74;56.21;94613.19;5073299;28;20457;-75
2021/06/21 09:18:00;;;;;;;9.50;7.20;;;;;;;28.42;56.76;94598.69;5073058;28;20453;-74
2021/06/21 09:20:27;;;;;;;9.17;8.17;;;;;;;28.04;57.97;94605.63;5073208;28;20528;-74
2021/06/21 09:23:00;;;;;;;54.53;15.10;;;;;;;28.44;58.22;94607.34;5073193;28;20943;-75
2021/06/21 09:25:28;;;;;;;8.10;6.47;;;;;;;28.79;59.05;94604.34;5073423;28;20437;-75
2021/06/21 09:27:57;;;;;;;11.00;8.07;;;;;;;28.46;56.30;94599.81;5073160;28;20440;-74
2021/06/21 09:30:25;;;;;;;9.47;8.03;;;;;;;28.59;58.00;94599.47;5038512;28;20484;-73
2021/06/21 09:32:54;;;;;;;8.40;7.60;;;;;;;28.28;55.93;94612.50;5072895;28;20519;-74
2021/06/21 09:35:41;;;;;;;10.37;7.23;;;;;;;28.24;57.52;94605.97;5073330;28;20494;-73
2021/06/21 09:38:17;;;;;;;10.07;7.00;;;;;;;28.13;58.52;94603.34;5072934;28;20870;-73
2021/06/21 09:40:50;;;;;;;13.87;8.23;;;;;;;27.82;58.25;94604.72;5073525;28;20506;-73
2021/06/21 09:43:25;;;;;;;9.67;7.37;;;;;;;27.92;58.77;94604.88;5038351;28;20858;-74
2021/06/21 09:46:05;;;;;;;13.53;7.40;;;;;;;28.26;58.81;94608.44;5078559;28;20460;-73
2021/06/21 09:48:33;;;;;;;5.93;5.43;;;;;;;28.48;52.68;94603.91;5113627;28;20922;-73
2021/06/21 09:51:18;;;;;;;12.00;6.40;;;;;;;28.63;54.17;94600.63;5113533;28;20604;-74
2021/06/21 09:53:54;;;;;;;5.73;5.23;;;;;;;28.55;51.53;94596.44;5113177;28;20483;-73
2021/06/21 09:56:33;;;;;;;8.67;5.70;;;;;;;28.64;50.97;94591.44;5077060;28;20430;-73
2021/06/21 09:59:00;;;;;;;8.80;5.77;;;;;;;28.68;49.55;94598.81;5113619;28;20451;-73
2021/06/21 10:01:31;;;;;;;5.90;5.33;;;;;;;28.77;51.51;94596.47;5113247;28;20521;-73
2021/06/21 10:03:58;;;;;;;5.30;4.80;;;;;;;28.94;52.37;94594.59;5113305;28;20447;-73
2021/06/21 10:06:37;;;;;;;6.47;4.83;;;;;;;28.94;49.46;94591.88;5116102;28;20439;-75
2021/06/21 10:09:05;;;;;;;5.73;4.50;;;;;;;28.88;48.99;94602.84;5117667;28;20462;-73
2021/06/21 10:11:36;;;;;;;6.53;4.70;;;;;;;28.82;49.26;94591.13;5117538;28;20495;-73
2021/06/21 10:14:06;;;;;;;6.07;5.10;;;;;;;28.80;49.73;94589.75;5117440;28;20443;-73
2021/06/21 10:16:33;;;;;;;5.63;4.30;;;;;;;28.85;47.86;94585.25;5117194;28;20504;-73
2021/06/21 10:19:01;;;;;;;5.13;4.63;;;;;;;28.61;49.66;94576.53;5117543;28;20508;-74
2021/06/21 10:21:29;;;;;;;7.10;4.67;;;;;;;28.79;48.87;94580.84;5081802;28;20470;-73
2021/06/21 10:23:57;;;;;;;4.90;4.10;;;;;;;28.82;49.22;94577.63;5117281;28;20946;-73
2021/06/21 10:26:24;;;;;;;5.80;4.03;;;;;;;28.98;48.92;94581.38;5117076;28;20443;-72
2021/06/21 10:28:54;;;;;;;6.17;3.90;;;;;;;29.13;49.32;94578.03;5117001;28;20470;-72
2021/06/21 10:31:22;;;;;;;4.53;3.93;;;;;;;29.25;47.85;94573.31;5117302;28;20850;-72
2021/06/21 10:33:50;;;;;;;4.53;3.70;;;;;;;29.26;44.73;94580.34;5117090;28;20525;-74
2021/06/21 10:36:17;;;;;;;3.60;3.40;;;;;;;29.17;43.24;94585.38;5117121;28;21012;-74
2021/06/21 10:38:44;;;;;;;3.07;2.87;;;;;;;29.15;42.42;94578.59;5116796;28;20928;-75
2021/06/21 10:41:12;;;;;;;3.63;3.37;;;;;;;29.17;43.87;94573.75;5116965;28;20486;-74
2021/06/21 10:43:47;;;;;;;4.10;3.80;;;;;;;29.28;45.29;94580.91;5080860;28;20496;-72
2021/06/21 10:46:28;;;;;;;3.87;3.57;;;;;;;29.45;46.34;94576.25;5117030;28;20466;-75
2021/06/21 10:49:33;;;;;;;4.43;3.57;;;;;;;29.54;44.89;94574.75;5116662;28;20435;-73
2021/06/21 10:52:00;;;;;;;3.50;3.23;;;;;;;29.67;45.07;94567.28;5116468;28;20794;-74
2021/06/21 10:54:28;;;;;;;7.13;5.13;;;;;;;29.74;45.46;94570.56;5116795;28;20975;-75
2021/06/21 10:56:57;;;;;;;3.80;3.50;;;;;;;29.62;42.93;94570.75;5116618;28;20430;-75
2021/06/21 10:59:25;;;;;;;4.37;3.73;;;;;;;29.64;43.10;94578.59;5116377;28;20964;-75
2021/06/21 11:01:55;;;;;;;4.30;3.90;;;;;;;29.69;42.79;94565.94;5116378;28;20446;-74
2021/06/21 11:04:47;;;;;;;4.30;3.93;;;;;;;29.75;43.90;94558.69;5116364;28;20463;-75
2021/06/21 11:07:17;;;;;;;4.10;3.80;;;;;;;29.70;43.47;94548.63;5116241;28;20454;-74
2021/06/21 11:09:45;;;;;;;4.50;3.87;;;;;;;29.45;43.43;94560.03;5116377;28;20446;-74
2021/06/21 11:12:35;;;;;;;5.50;3.43;;;;;;;29.49;44.42;94555.78;5116264;28;20527;-75
2021/06/21 11:15:10;;;;;;;10.23;3.57;;;;;;;29.60;44.46;94549.38;5116249;28;20873;-75
2021/06/21 11:17:58;;;;;;;5.17;3.80;;;;;;;29.71;44.20;94542.16;5115062;28;20442;-74
2021/06/21 11:20:36;;;;;;;3.83;3.63;;;;;;;29.86;43.10;94538.78;5116108;28;20439;-74
2021/06/21 11:23:05;;;;;;;4.00;3.60;;;;;;;29.97;43.54;94529.66;5115852;28;20446;-75
2021/06/21 11:25:34;;;;;;;3.83;3.53;;;;;;;30.06;44.17;94535.41;5116180;28;20442;-74
2021/06/21 11:28:01;;;;;;;4.70;4.30;;;;;;;29.88;43.80;94536.63;5115997;28;20473;-75
2021/06/21 11:30:34;;;;;;;4.93;4.27;;;;;;;29.68;43.67;94537.25;5115792;28;20870;-75
2021/06/21 11:33:06;;;;;;;5.63;4.37;;;;;;;29.58;45.99;94535.28;5115763;28;20487;-75
2021/06/21 11:35:58;;;;;;;4.33;4.03;;;;;;;29.17;45.28;94544.84;5080487;28;20982;-74
2021/06/21 11:38:28;;;;;;;4.37;4.00;;;;;;;29.12;44.69;94533.97;5115583;28;20531;-74
2021/06/21 11:41:31;;;;;;;5.33;4.13;;;;;;;29.20;44.80;94535.41;5115661;28;20447;-74
2021/06/21 11:44:02;;;;;;;6.30;4.37;;;;;;;29.17;45.59;94535.91;5115421;28;20446;-75